createdAt,value
2018-11-23T00:00:42.388Z,41.3
2018-11-23T00:01:43.161Z,39.5
2018-11-23T00:02:43.870Z,37.4
2018-11-23T00:03:44.588Z,41.6
2018-11-23T00:04:45.305Z,36.6
2018-11-23T00:05:46.016Z,38.7
2018-11-23T00:06:46.737Z,37.0
2018-11-23T00:07:47.455Z,37.9
2018-11-23T00:08:48.173Z,38.9
2018-11-23T00:09:48.882Z,42.7
2018-11-23T00:10:49.845Z,43.0
2018-11-23T00:11:50.809Z,38.4
2018-11-23T00:12:51.519Z,40.6
2018-11-23T00:13:52.485Z,39.2
2018-11-23T00:14:53.199Z,38.6
2018-11-23T00:15:53.908Z,42.1
2018-11-23T00:16:54.630Z,38.4
2018-11-23T00:17:55.335Z,37.8
2018-11-23T00:18:56.149Z,38.0
2018-11-23T00:19:56.867Z,40.3
2018-11-23T00:20:57.831Z,40.9
2018-11-23T00:21:58.540Z,40.9
2018-11-23T00:22:59.260Z,37.9
2018-11-23T00:24:00.027Z,39.4
2018-11-23T00:25:00.744Z,43.0
2018-11-23T00:26:01.461Z,40.5
2018-11-23T00:27:02.175Z,41.3
2018-11-23T00:28:03.143Z,39.5
2018-11-23T00:29:03.850Z,38.9
2018-11-23T00:30:04.565Z,44.7
2018-11-23T00:31:05.271Z,41.8
2018-11-23T00:32:05.983Z,41.1
2018-11-23T00:33:06.689Z,44.6
2018-11-23T00:34:07.415Z,40.0
2018-11-23T00:35:08.136Z,42.0
2018-11-23T00:36:08.842Z,38.5
2018-11-23T00:37:09.565Z,40.4
2018-11-23T00:38:10.277Z,42.2
2018-11-23T00:39:10.998Z,38.0
2018-11-23T00:40:11.710Z,42.5
2018-11-23T00:41:12.425Z,38.6
2018-11-23T00:42:13.136Z,41.5
2018-11-23T00:43:13.847Z,40.7
2018-11-23T00:44:14.863Z,40.2
2018-11-23T00:45:15.575Z,38.4
2018-11-23T00:46:16.559Z,41.1
2018-11-23T00:47:17.256Z,38.1
2018-11-23T00:48:17.981Z,41.0
2018-11-23T00:49:18.683Z,42.9
2018-11-23T00:50:19.391Z,38.0
2018-11-23T00:51:20.356Z,42.8
2018-11-23T00:52:21.088Z,40.9
2018-11-23T00:53:21.796Z,38.9
2018-11-23T00:54:22.519Z,37.7
2018-11-23T00:55:23.234Z,40.0
2018-11-23T00:56:23.965Z,36.3
2018-11-23T00:57:24.679Z,39.2
2018-11-23T00:58:25.383Z,38.9
2018-11-23T00:59:26.346Z,38.8
2018-11-23T01:00:27.058Z,39.4
2018-11-23T01:01:27.776Z,41.5
2018-11-23T01:02:28.490Z,39.2
2018-11-23T01:03:29.204Z,39.3
2018-11-23T01:04:29.919Z,38.7
2018-11-23T01:05:30.621Z,42.2
2018-11-23T01:06:31.341Z,40.8
2018-11-23T01:07:32.055Z,39.7
2018-11-23T01:08:32.816Z,38.4
2018-11-23T01:09:33.528Z,42.4
2018-11-23T01:10:34.245Z,40.9
2018-11-23T01:11:34.961Z,39.9
2018-11-23T01:12:35.664Z,43.1
2018-11-23T01:13:36.376Z,39.3
2018-11-23T01:14:37.080Z,38.2
2018-11-23T01:15:37.794Z,38.2
2018-11-23T01:16:38.492Z,36.7
2018-11-23T01:17:39.203Z,40.2
2018-11-23T01:18:40.168Z,38.9
2018-11-23T01:19:40.874Z,40.5
2018-11-23T01:20:41.592Z,38.0
2018-11-23T01:21:42.561Z,38.0
2018-11-23T01:22:43.273Z,36.6
2018-11-23T01:23:43.975Z,40.4
2018-11-23T01:24:44.838Z,40.1
2018-11-23T01:25:45.553Z,39.0
2018-11-23T01:26:46.268Z,42.4
2018-11-23T01:27:46.993Z,36.5
2018-11-23T01:28:47.691Z,39.7
2018-11-23T01:29:48.411Z,40.1
2018-11-23T01:30:49.121Z,40.1
2018-11-23T01:31:49.827Z,40.9
2018-11-23T01:32:50.543Z,38.5
2018-11-23T01:33:51.506Z,35.6
2018-11-23T01:34:52.214Z,40.6
2018-11-23T01:35:52.926Z,43.3
2018-11-23T01:36:53.637Z,39.2
2018-11-23T01:37:54.354Z,39.3
2018-11-23T01:38:55.073Z,39.4
2018-11-23T01:39:56.038Z,38.8
2018-11-23T01:40:56.764Z,45.8
2018-11-23T01:41:57.533Z,42.3
2018-11-23T01:42:58.287Z,40.4
2018-11-23T01:43:59.011Z,39.3
2018-11-23T01:44:59.727Z,41.1
2018-11-23T01:46:00.439Z,39.0
2018-11-23T01:47:01.162Z,36.7
2018-11-23T01:48:01.919Z,38.8
2018-11-23T01:49:02.637Z,42.0
2018-11-23T01:50:03.353Z,42.4
2018-11-23T01:51:04.066Z,40.9
2018-11-23T01:52:04.774Z,37.7
2018-11-23T01:53:05.487Z,40.8
2018-11-23T01:54:06.213Z,39.5
2018-11-23T01:55:06.914Z,43.0
2018-11-23T01:56:07.879Z,38.3
2018-11-23T01:57:08.604Z,39.3
2018-11-23T01:58:09.313Z,39.5
2018-11-23T01:59:10.275Z,37.4
2018-11-23T02:00:10.986Z,39.5
2018-11-23T02:01:11.701Z,37.9
2018-11-23T02:02:12.403Z,37.9
2018-11-23T02:03:13.132Z,36.8
2018-11-23T02:04:13.829Z,39.3
2018-11-23T02:05:14.553Z,38.0
2018-11-23T02:06:15.269Z,37.7
2018-11-23T02:07:16.281Z,37.3
2018-11-23T02:08:16.992Z,36.7
2018-11-23T02:09:17.964Z,37.8
2018-11-23T02:10:18.678Z,35.3
2018-11-23T02:11:19.388Z,40.2
2018-11-23T02:12:20.109Z,39.6
2018-11-23T02:13:20.814Z,37.2
2018-11-23T02:14:21.776Z,38.0
2018-11-23T02:15:22.494Z,37.3
2018-11-23T02:16:23.203Z,35.4
2018-11-23T02:17:23.921Z,34.8
2018-11-23T02:18:24.640Z,36.6
2018-11-23T02:19:25.351Z,36.0
2018-11-23T02:20:26.067Z,35.0
2018-11-23T02:21:26.778Z,36.9
2018-11-23T02:22:27.739Z,38.2
2018-11-23T02:23:28.461Z,34.7
2018-11-23T02:24:29.178Z,37.8
2018-11-23T02:25:29.895Z,36.8
2018-11-23T02:26:30.864Z,42.8
2018-11-23T02:27:31.816Z,41.7
2018-11-23T02:28:32.543Z,36.7
2018-11-23T02:29:33.243Z,36.2
2018-11-23T02:30:33.960Z,37.3
2018-11-23T02:31:34.674Z,37.2
2018-11-23T02:32:35.438Z,36.0
2018-11-23T02:33:36.152Z,37.3
2018-11-23T02:34:36.870Z,36.8
2018-11-23T02:35:37.587Z,41.8
2018-11-23T02:36:38.297Z,37.0
2018-11-23T02:37:39.263Z,37.4
2018-11-23T02:38:40.285Z,38.7
2018-11-23T02:39:40.993Z,36.9
2018-11-23T02:40:41.703Z,37.4
2018-11-23T02:41:42.417Z,36.9
2018-11-23T02:42:43.133Z,37.4
2018-11-23T02:43:43.843Z,36.7
2018-11-23T02:44:44.559Z,37.8
2018-11-23T02:45:45.277Z,40.0
2018-11-23T02:46:45.996Z,34.8
2018-11-23T02:47:46.710Z,36.9
2018-11-23T02:48:47.438Z,34.6
2018-11-23T02:49:48.137Z,41.6
2018-11-23T02:50:48.859Z,40.6
2018-11-23T02:51:49.576Z,39.2
2018-11-23T02:52:50.284Z,42.2
2018-11-23T02:53:51.005Z,40.5
2018-11-23T02:54:51.715Z,37.6
2018-11-23T02:55:52.427Z,38.9
2018-11-23T02:56:53.135Z,36.2
2018-11-23T02:57:53.841Z,36.3
2018-11-23T02:58:54.797Z,36.7
2018-11-23T02:59:55.517Z,38.3
2018-11-23T03:00:56.226Z,41.6
2018-11-23T03:01:57.186Z,40.8
2018-11-23T03:02:57.944Z,38.5
2018-11-23T03:03:58.658Z,37.1
2018-11-23T03:04:59.383Z,40.0
2018-11-23T03:06:00.099Z,37.6
2018-11-23T03:07:00.819Z,35.9
2018-11-23T03:08:01.526Z,39.1
2018-11-23T03:09:02.238Z,38.7
2018-11-23T03:10:02.956Z,39.6
2018-11-23T03:11:03.677Z,35.0
2018-11-23T03:12:04.390Z,39.7
2018-11-23T03:13:05.505Z,33.6
2018-11-23T03:14:06.224Z,40.8
2018-11-23T03:15:07.190Z,37.1
2018-11-23T03:16:07.907Z,35.9
2018-11-23T03:17:08.623Z,33.1
2018-11-23T03:18:09.332Z,39.7
2018-11-23T03:19:10.293Z,37.7
2018-11-23T03:20:11.006Z,40.5
2018-11-23T03:21:11.728Z,40.1
2018-11-23T03:22:12.442Z,38.3
2018-11-23T03:23:13.162Z,40.3
2018-11-23T03:24:13.974Z,44.5
2018-11-23T03:25:14.688Z,42.1
2018-11-23T03:26:15.406Z,41.4
2018-11-23T03:27:16.118Z,41.0
2018-11-23T03:28:16.826Z,42.6
2018-11-23T03:29:17.546Z,40.7
2018-11-23T03:30:18.259Z,45.2
2018-11-23T03:31:18.970Z,45.3
2018-11-23T03:32:19.687Z,48.7
2018-11-23T03:33:20.400Z,42.2
2018-11-23T03:34:21.106Z,43.9
2018-11-23T03:35:21.822Z,46.6
2018-11-23T03:36:22.541Z,49.6
2018-11-23T03:37:23.251Z,50.5
2018-11-23T03:38:24.231Z,51.2
2018-11-23T03:39:25.035Z,57.9
2018-11-23T03:40:25.753Z,55.4
2018-11-23T03:41:26.468Z,56.4
2018-11-23T03:42:27.182Z,53.3
2018-11-23T03:43:27.894Z,55.1
2018-11-23T03:44:28.613Z,55.8
2018-11-23T03:45:29.325Z,61.0
2018-11-23T03:46:30.051Z,60.2
2018-11-23T03:47:30.760Z,61.3
2018-11-23T03:48:31.491Z,61.4
2018-11-23T03:49:32.350Z,61.4
2018-11-23T03:50:33.085Z,57.5
2018-11-23T03:51:33.771Z,67.2
2018-11-23T03:52:34.497Z,68.0
2018-11-23T03:53:35.195Z,63.0
2018-11-23T03:54:35.912Z,60.6
2018-11-23T03:55:36.617Z,68.3
2018-11-23T03:56:37.383Z,68.2
2018-11-23T03:57:38.106Z,66.0
2018-11-23T03:58:38.824Z,66.9
2018-11-23T03:59:39.541Z,70.1
2018-11-23T04:00:40.255Z,71.0
2018-11-23T04:01:41.019Z,69.1
2018-11-23T04:02:41.728Z,79.9
2018-11-23T04:03:42.439Z,72.6
2018-11-23T04:04:43.147Z,75.9
2018-11-23T04:05:43.857Z,74.6
2018-11-23T04:06:44.572Z,74.0
2018-11-23T04:07:45.284Z,79.8
2018-11-23T04:08:46.355Z,88.6
2018-11-23T04:09:47.067Z,87.2
2018-11-23T04:10:47.780Z,80.1
2018-11-23T04:11:48.744Z,89.7
2018-11-23T04:12:49.453Z,86.4
2018-11-23T04:13:50.165Z,74.6
2018-11-23T04:14:50.891Z,89.4
2018-11-23T04:15:51.609Z,87.8
2018-11-23T04:16:52.578Z,86.7
2018-11-23T04:17:53.291Z,90.3
2018-11-23T04:18:54.012Z,79.1
2018-11-23T04:19:54.720Z,98.2
2018-11-23T04:20:55.441Z,83.1
2018-11-23T04:21:56.198Z,86.8
2018-11-23T04:22:56.900Z,97.2
2018-11-23T04:23:57.610Z,93.5
2018-11-23T04:24:58.336Z,90.8
2018-11-23T04:25:59.053Z,91.7
2018-11-23T04:26:59.772Z,96.2
2018-11-23T04:28:00.478Z,106.5
2018-11-23T04:29:01.446Z,102.9
2018-11-23T04:30:02.153Z,99.1
2018-11-23T04:31:02.866Z,94.0
2018-11-23T04:32:03.586Z,105.4
2018-11-23T04:33:04.298Z,97.9
2018-11-23T04:34:05.024Z,107.9
2018-11-23T04:35:05.735Z,109.7
2018-11-23T04:36:06.460Z,102.5
2018-11-23T04:37:07.168Z,98.8
2018-11-23T04:38:07.876Z,97.8
2018-11-23T04:39:08.685Z,117.1
2018-11-23T04:40:09.407Z,109.4
2018-11-23T04:41:10.119Z,108.6
2018-11-23T04:42:10.831Z,109.8
2018-11-23T04:43:11.578Z,118.1
2018-11-23T04:44:12.331Z,117.7
2018-11-23T04:45:13.053Z,104.4
2018-11-23T04:46:13.769Z,121.2
2018-11-23T04:47:14.481Z,109.4
2018-11-23T04:48:15.240Z,120.2
2018-11-23T04:49:15.898Z,113.4
2018-11-23T04:50:16.655Z,113.6
2018-11-23T04:51:17.376Z,135.9
2018-11-23T04:52:18.085Z,127.2
2018-11-23T04:53:18.796Z,121.0
2018-11-23T04:54:19.512Z,123.2
2018-11-23T04:55:20.229Z,119.6
2018-11-23T04:56:20.955Z,116.2
2018-11-23T04:57:21.662Z,118.0
2018-11-23T04:58:22.367Z,129.7
2018-11-23T04:59:23.081Z,122.1
2018-11-23T05:00:23.784Z,115.4
2018-11-23T05:01:24.505Z,137.2
2018-11-23T05:02:25.220Z,125.5
2018-11-23T05:03:25.927Z,143.7
2018-11-23T05:04:26.644Z,136.5
2018-11-23T05:05:27.414Z,126.9
2018-11-23T05:06:28.117Z,133.5
2018-11-23T05:07:29.075Z,131.7
2018-11-23T05:08:29.784Z,120.6
2018-11-23T05:09:30.506Z,128.6
2018-11-23T05:10:31.218Z,145.8
2018-11-23T05:11:31.929Z,138.7
2018-11-23T05:12:32.641Z,142.0
2018-11-23T05:13:33.353Z,115.4
2018-11-23T05:14:34.312Z,139.5
2018-11-23T05:15:35.293Z,124.6
2018-11-23T05:16:36.012Z,130.1
2018-11-23T05:17:36.720Z,119.9
2018-11-23T05:18:37.433Z,128.2
2018-11-23T05:19:38.152Z,134.2
2018-11-23T05:20:38.855Z,142.7
2018-11-23T05:21:39.816Z,147.1
2018-11-23T05:22:40.535Z,156.3
2018-11-23T05:23:41.243Z,148.4
2018-11-23T05:24:41.964Z,157.2
2018-11-23T05:25:42.667Z,136.2
2018-11-23T05:26:43.375Z,160.6
2018-11-23T05:27:44.100Z,150.8
2018-11-23T05:28:44.806Z,149.5
2018-11-23T05:29:45.765Z,152.4
2018-11-23T05:30:46.729Z,169.6
2018-11-23T05:31:47.445Z,162.6
2018-11-23T05:32:48.160Z,171.8
2018-11-23T05:33:48.866Z,148.9
2018-11-23T05:34:49.583Z,170.6
2018-11-23T05:35:50.282Z,166.1
2018-11-23T05:36:51.394Z,179.3
2018-11-23T05:37:52.109Z,157.6
2018-11-23T05:38:52.820Z,163.9
2018-11-23T05:39:53.545Z,154.1
2018-11-23T05:40:54.273Z,167.5
2018-11-23T05:41:54.988Z,160.1
2018-11-23T05:42:55.972Z,177.5
2018-11-23T05:43:56.683Z,178.6
2018-11-23T05:44:57.398Z,158.7
2018-11-23T05:45:58.111Z,156.5
2018-11-23T05:46:58.819Z,168.7
2018-11-23T05:47:59.536Z,175.1
2018-11-23T05:49:00.250Z,167.0
2018-11-23T05:50:00.978Z,181.6
2018-11-23T05:51:01.684Z,167.5
2018-11-23T05:52:02.389Z,157.0
2018-11-23T05:53:03.099Z,163.0
2018-11-23T05:54:03.909Z,165.7
2018-11-23T05:55:04.623Z,158.5
2018-11-23T05:56:05.337Z,169.4
2018-11-23T05:57:06.051Z,189.0
2018-11-23T05:58:06.762Z,151.2
2018-11-23T05:59:07.527Z,195.3
2018-11-23T06:00:08.243Z,175.0
2018-11-23T06:01:09.220Z,166.8
2018-11-23T06:02:09.923Z,173.8
2018-11-23T06:03:10.634Z,212.0
2018-11-23T06:04:11.345Z,165.8
2018-11-23T06:05:12.054Z,160.2
2018-11-23T06:06:12.774Z,192.3
2018-11-23T06:07:13.487Z,175.1
2018-11-23T06:08:14.204Z,181.2
2018-11-23T06:09:14.936Z,175.6
2018-11-23T06:10:15.638Z,189.0
2018-11-23T06:11:16.352Z,173.0
2018-11-23T06:12:17.070Z,181.8
2018-11-23T06:13:17.857Z,178.6
2018-11-23T06:14:18.841Z,195.5
2018-11-23T06:15:19.647Z,173.6
2018-11-23T06:16:20.357Z,182.1
2018-11-23T06:17:21.072Z,200.1
2018-11-23T06:18:21.788Z,193.7
2018-11-23T06:19:22.510Z,184.5
2018-11-23T06:20:23.228Z,159.6
2018-11-23T06:21:23.950Z,182.6
2018-11-23T06:22:24.684Z,167.5
2018-11-23T06:23:25.399Z,179.4
2018-11-23T06:24:31.936Z,177.8
2018-11-23T06:25:26.839Z,177.1
2018-11-23T06:26:27.564Z,177.9
2018-11-23T06:27:28.266Z,201.3
2018-11-23T06:28:29.511Z,166.5
2018-11-23T06:29:30.217Z,175.2
2018-11-23T06:30:30.937Z,185.7
2018-11-23T06:31:31.648Z,177.3
2018-11-23T06:32:32.373Z,180.9
2018-11-23T06:33:33.093Z,179.4
2018-11-23T06:34:33.799Z,194.2
2018-11-23T06:35:34.755Z,183.7
2018-11-23T06:36:35.469Z,159.3
2018-11-23T06:37:36.178Z,210.4
2018-11-23T06:38:36.895Z,181.0
2018-11-23T06:39:37.610Z,184.9
2018-11-23T06:40:38.334Z,211.4
2018-11-23T06:41:39.351Z,188.7
2018-11-23T06:42:42.234Z,174.4
2018-11-23T06:43:40.845Z,180.5
2018-11-23T06:44:41.566Z,221.9
2018-11-23T06:45:42.293Z,176.0
2018-11-23T06:46:43.055Z,193.1
2018-11-23T06:47:43.775Z,246.5
2018-11-23T06:48:44.497Z,219.1
2018-11-23T06:49:45.473Z,198.2
2018-11-23T06:50:46.285Z,192.9
2018-11-23T06:51:47.255Z,201.0
2018-11-23T06:52:47.973Z,221.0
2018-11-23T06:53:48.686Z,198.4
2018-11-23T06:54:49.406Z,173.4
2018-11-23T06:55:50.173Z,206.3
2018-11-23T06:56:50.882Z,213.1
2018-11-23T06:57:51.613Z,191.5
2018-11-23T06:58:52.323Z,179.1
2018-11-23T06:59:53.047Z,181.8
2018-11-23T07:00:53.768Z,181.7
2018-11-23T07:01:54.735Z,196.4
2018-11-23T07:02:59.159Z,198.6
2018-11-23T07:03:56.423Z,181.1
2018-11-23T07:04:57.149Z,213.6
2018-11-23T07:05:57.874Z,184.0
2018-11-23T07:06:58.680Z,189.5
2018-11-23T07:07:59.399Z,195.4
2018-11-23T07:09:00.370Z,187.3
2018-11-23T07:10:01.086Z,197.6
2018-11-23T07:11:01.814Z,176.3
2018-11-23T07:12:02.578Z,222.6
2018-11-23T07:13:03.333Z,202.2
2018-11-23T07:14:04.199Z,191.9
2018-11-23T07:15:04.733Z,176.6
2018-11-23T07:16:05.724Z,198.7
2018-11-23T07:17:06.533Z,216.8
2018-11-23T07:18:07.247Z,211.2
2018-11-23T07:19:07.975Z,186.1
2018-11-23T07:20:08.684Z,190.1
2018-11-23T07:21:09.398Z,199.3
2018-11-23T07:22:10.175Z,202.1
2018-11-23T07:23:10.899Z,216.6
2018-11-23T07:24:11.616Z,203.3
2018-11-23T07:25:12.348Z,188.8
2018-11-23T07:26:13.317Z,196.9
2018-11-23T07:27:14.051Z,196.1
2018-11-23T07:28:15.595Z,197.1
2018-11-23T07:29:15.498Z,198.4
2018-11-23T07:30:16.221Z,210.5
2018-11-23T07:31:16.941Z,221.2
2018-11-23T07:32:17.659Z,204.3
2018-11-23T07:33:18.375Z,199.5
2018-11-23T07:34:19.088Z,196.9
2018-11-23T07:35:19.804Z,186.8
2018-11-23T07:36:20.525Z,204.7
2018-11-23T07:37:21.250Z,200.3
2018-11-23T07:38:21.987Z,210.3
2018-11-23T07:39:22.695Z,204.6
2018-11-23T07:40:23.422Z,204.6
2018-11-23T07:41:24.131Z,209.2
2018-11-23T07:42:24.844Z,188.6
2018-11-23T07:43:25.568Z,201.5
2018-11-23T07:44:26.322Z,213.7
2018-11-23T07:45:27.036Z,208.1
2018-11-23T07:46:27.749Z,209.4
2018-11-23T07:47:28.457Z,190.9
2018-11-23T07:48:29.181Z,218.4
2018-11-23T07:49:30.054Z,229.8
2018-11-23T07:50:30.774Z,212.3
2018-11-23T07:51:31.502Z,219.5
2018-11-23T07:52:32.206Z,208.9
2018-11-23T07:53:32.917Z,227.9
2018-11-23T07:54:33.640Z,207.4
2018-11-23T07:55:34.393Z,220.8
2018-11-23T07:56:35.135Z,216.0
2018-11-23T07:57:35.856Z,234.4
2018-11-23T07:58:36.850Z,215.3
2018-11-23T07:59:37.910Z,204.4
2018-11-23T08:00:39.584Z,186.1
2018-11-23T08:01:40.590Z,201.3
2018-11-23T08:02:41.573Z,231.0
2018-11-23T08:03:42.300Z,240.5
2018-11-23T08:04:43.014Z,219.6
2018-11-23T08:05:43.729Z,223.6
2018-11-23T08:06:44.448Z,229.7
2018-11-23T08:07:45.471Z,195.6
2018-11-23T08:08:46.286Z,214.9
2018-11-23T08:09:46.997Z,234.7
2018-11-23T08:10:47.729Z,232.5
2018-11-23T08:11:48.441Z,211.6
2018-11-23T08:12:49.154Z,196.7
2018-11-23T08:13:49.863Z,222.7
2018-11-23T08:14:50.590Z,224.7
2018-11-23T08:15:51.356Z,228.7
2018-11-23T08:16:52.081Z,221.9
2018-11-23T08:17:52.792Z,201.2
2018-11-23T08:18:53.510Z,200.5
2018-11-23T08:19:54.484Z,256.5
2018-11-23T08:20:55.212Z,221.5
2018-11-23T08:21:55.924Z,234.0
2018-11-23T08:22:56.634Z,249.4
2018-11-23T08:23:57.347Z,236.4
2018-11-23T08:24:58.072Z,221.2
2018-11-23T08:25:58.798Z,235.5
2018-11-23T08:26:59.851Z,228.0
2018-11-23T08:28:01.334Z,223.2
2018-11-23T08:30:03.717Z,220.5
2018-11-23T08:31:04.430Z,213.6
2018-11-23T08:32:05.231Z,216.9
2018-11-23T08:33:05.963Z,218.0
2018-11-23T08:34:06.687Z,197.8
2018-11-23T08:35:07.408Z,231.8
2018-11-23T08:36:08.125Z,223.5
2018-11-23T08:37:08.845Z,219.0
2018-11-23T08:38:09.564Z,226.9
2018-11-23T08:39:10.280Z,221.1
2018-11-23T08:40:10.997Z,218.0
2018-11-23T08:41:11.713Z,213.9
2018-11-23T08:42:12.435Z,210.4
2018-11-23T08:43:13.162Z,191.7
2018-11-23T08:44:13.870Z,205.9
2018-11-23T08:45:14.685Z,186.2
2018-11-23T08:46:15.408Z,177.1
2018-11-23T08:47:16.131Z,182.6
2018-11-23T08:48:16.842Z,162.9
2018-11-23T08:49:17.808Z,170.3
2018-11-23T08:50:18.542Z,164.0
2018-11-23T08:51:19.260Z,150.2
2018-11-23T08:52:19.993Z,148.2
2018-11-23T08:53:27.739Z,146.4
2018-11-23T08:54:21.682Z,151.4
2018-11-23T08:55:22.453Z,140.5
2018-11-23T08:56:23.156Z,159.5
2018-11-23T08:57:23.887Z,154.0
2018-11-23T08:58:24.613Z,147.5
2018-11-23T08:59:25.340Z,131.6
2018-11-23T09:00:26.049Z,143.6
2018-11-23T09:01:26.767Z,140.2
2018-11-23T09:02:27.488Z,137.6
2018-11-23T09:03:28.457Z,131.6
2018-11-23T09:04:29.639Z,136.1
2018-11-23T09:05:29.906Z,122.1
2018-11-23T09:06:30.890Z,121.7
2018-11-23T09:07:31.605Z,119.6
2018-11-23T09:08:32.315Z,125.5
2018-11-23T09:09:33.971Z,113.6
2018-11-23T09:10:34.009Z,109.4
2018-11-23T09:11:34.720Z,104.8
2018-11-23T09:12:35.462Z,107.7
2018-11-23T09:13:36.168Z,110.6
2018-11-23T09:14:36.878Z,93.4
2018-11-23T09:15:37.623Z,98.2
2018-11-23T09:16:38.344Z,88.7
2018-11-23T09:17:39.066Z,86.2
2018-11-23T09:18:39.791Z,85.2
2018-11-23T09:19:40.522Z,83.1
2018-11-23T09:20:41.247Z,77.3
2018-11-23T09:21:42.216Z,78.1
2018-11-23T09:22:42.932Z,68.6
2018-11-23T09:23:43.657Z,68.3
2018-11-23T09:24:44.383Z,62.7
2018-11-23T09:25:45.107Z,53.6
2018-11-23T09:26:45.820Z,54.4
2018-11-23T09:27:47.054Z,59.3
2018-11-23T09:28:47.766Z,54.0
2018-11-23T09:29:48.483Z,54.3
2018-11-23T09:30:49.216Z,50.5
2018-11-23T09:31:49.930Z,48.4
2018-11-23T09:32:50.647Z,52.0
2018-11-23T09:33:51.369Z,50.8
2018-11-23T09:34:52.093Z,46.4
2018-11-23T09:35:52.859Z,47.3
2018-11-23T09:36:53.583Z,47.7
2018-11-23T09:37:54.300Z,42.8
2018-11-23T09:38:55.018Z,43.6
2018-11-23T09:39:55.732Z,44.9
2018-11-23T09:40:56.549Z,44.2
2018-11-23T09:41:57.272Z,43.1
2018-11-23T09:42:57.990Z,46.1
2018-11-23T09:43:58.709Z,45.5
2018-11-23T09:44:59.458Z,49.7
2018-11-23T09:46:00.229Z,45.4
2018-11-23T09:47:00.959Z,47.3
2018-11-23T09:48:01.676Z,45.9
2018-11-23T09:49:02.394Z,44.6
2018-11-23T09:50:03.364Z,47.2
2018-11-23T09:51:04.385Z,46.6
2018-11-23T09:52:05.101Z,50.3
2018-11-23T09:53:05.820Z,47.5
2018-11-23T09:54:06.546Z,46.9
2018-11-23T09:55:07.265Z,46.1
2018-11-23T09:56:07.980Z,44.2
2018-11-23T09:57:08.694Z,51.1
2018-11-23T09:58:09.414Z,49.5
2018-11-23T09:59:10.139Z,42.5
2018-11-23T10:00:10.864Z,43.4
2018-11-23T10:01:11.838Z,39.6
2018-11-23T10:02:12.555Z,43.1
2018-11-23T10:03:13.272Z,43.6
2018-11-23T10:04:14.098Z,40.8
2018-11-23T10:05:14.813Z,41.8
2018-11-23T10:06:15.539Z,42.5
2018-11-23T10:07:16.262Z,41.7
2018-11-23T10:08:16.982Z,40.8
2018-11-23T10:09:17.850Z,38.7
2018-11-23T10:10:18.582Z,42.4
2018-11-23T10:11:19.297Z,41.2
2018-11-23T10:12:20.020Z,44.2
2018-11-23T10:13:20.745Z,42.0
2018-11-23T10:14:21.709Z,42.7
2018-11-23T10:15:22.447Z,43.2
2018-11-23T10:16:23.159Z,38.9
2018-11-23T10:17:23.878Z,46.6
2018-11-23T10:18:24.607Z,45.9
2018-11-23T10:19:25.419Z,42.4
2018-11-23T10:20:26.151Z,42.7
2018-11-23T10:21:26.867Z,38.1
2018-11-23T10:22:27.595Z,43.7
2018-11-23T10:23:28.341Z,41.1
2018-11-23T10:24:29.120Z,43.6
2018-11-23T10:25:29.825Z,44.5
2018-11-23T10:26:30.554Z,46.9
2018-11-23T10:27:31.288Z,43.2
2018-11-23T10:28:31.978Z,42.0
2018-11-23T10:29:32.764Z,42.0
2018-11-23T10:30:33.484Z,41.6
2018-11-23T10:31:34.204Z,40.5
2018-11-23T10:32:34.916Z,42.3
2018-11-23T10:33:35.635Z,41.4
2018-11-23T10:34:36.346Z,42.7
2018-11-23T10:35:37.065Z,42.4
2018-11-23T10:36:37.785Z,42.6
2018-11-23T10:37:38.502Z,39.9
2018-11-23T10:38:39.468Z,40.5
2018-11-23T10:39:40.197Z,46.1
2018-11-23T10:40:40.913Z,45.1
2018-11-23T10:41:41.623Z,41.5
2018-11-23T10:42:42.345Z,43.2
2018-11-23T10:43:43.072Z,44.8
2018-11-23T10:44:43.792Z,44.3
2018-11-23T10:45:44.517Z,41.3
2018-11-23T10:46:45.246Z,42.2
2018-11-23T10:47:45.964Z,43.8
2018-11-23T10:48:46.691Z,44.1
2018-11-23T10:49:47.412Z,44.6
2018-11-23T10:50:48.129Z,39.2
2018-11-23T10:51:48.841Z,43.3
2018-11-23T10:52:49.574Z,40.8
2018-11-23T10:53:50.278Z,41.1
2018-11-23T10:54:50.997Z,40.5
2018-11-23T10:55:51.722Z,39.1
2018-11-23T10:56:52.435Z,43.6
2018-11-23T10:57:53.158Z,39.3
2018-11-23T10:58:53.922Z,42.3
2018-11-23T10:59:54.638Z,39.7
2018-11-23T11:00:55.354Z,42.4
2018-11-23T11:01:56.072Z,44.8
2018-11-23T11:02:56.786Z,45.4
2018-11-23T11:03:57.506Z,40.7
2018-11-23T11:04:58.239Z,42.3
2018-11-23T11:05:58.963Z,38.6
2018-11-23T11:06:59.671Z,42.0
2018-11-23T11:08:00.641Z,40.1
2018-11-23T11:09:01.366Z,45.2
2018-11-23T11:10:02.083Z,40.1
2018-11-23T11:11:03.353Z,40.3
2018-11-23T11:12:04.193Z,43.5
2018-11-23T11:13:04.912Z,39.7
2018-11-23T11:14:05.839Z,42.4
2018-11-23T11:15:06.948Z,44.7
2018-11-23T11:16:07.657Z,40.4
2018-11-23T11:17:08.649Z,42.9
2018-11-23T11:18:09.371Z,40.7
2018-11-23T11:19:10.373Z,44.9
2018-11-23T11:20:11.085Z,39.5
2018-11-23T11:21:11.793Z,41.5
2018-11-23T11:22:12.517Z,39.2
2018-11-23T11:23:13.235Z,39.9
2018-11-23T11:24:13.955Z,43.9
2018-11-23T11:25:14.662Z,39.7
2018-11-23T11:26:15.389Z,39.6
2018-11-23T11:27:16.105Z,38.1
2018-11-23T11:28:16.821Z,38.0
2018-11-23T11:29:17.538Z,38.1
2018-11-23T11:30:18.258Z,38.0
2018-11-23T11:31:19.236Z,39.9
2018-11-23T11:32:19.956Z,39.7
2018-11-23T11:33:20.718Z,40.6
2018-11-23T11:34:21.430Z,40.8
2018-11-23T11:35:22.148Z,41.0
2018-11-23T11:36:22.863Z,39.6
2018-11-23T11:37:23.589Z,40.7
2018-11-23T11:38:24.320Z,40.0
2018-11-23T11:39:25.062Z,39.6
2018-11-23T11:40:25.765Z,41.8
2018-11-23T11:41:26.481Z,36.5
2018-11-23T11:42:27.195Z,36.4
2018-11-23T11:43:27.913Z,40.9
2018-11-23T11:44:28.678Z,36.4
2018-11-23T11:45:29.404Z,39.6
2018-11-23T11:46:30.126Z,38.6
2018-11-23T11:47:30.853Z,38.3
2018-11-23T11:48:31.571Z,38.3
2018-11-23T11:49:32.338Z,38.1
2018-11-23T11:50:33.310Z,36.4
2018-11-23T11:51:34.028Z,36.5
2018-11-23T11:52:34.765Z,35.2
2018-11-23T11:53:35.499Z,35.8
2018-11-23T11:54:36.282Z,37.0
2018-11-23T11:55:37.001Z,36.1
2018-11-23T11:56:37.734Z,35.7
2018-11-23T11:57:38.458Z,33.8
2018-11-23T11:58:39.177Z,36.8
2018-11-23T11:59:39.904Z,34.5
2018-11-23T12:00:40.636Z,37.9
2018-11-23T12:01:41.369Z,37.5
2018-11-23T12:02:42.080Z,35.8
2018-11-23T12:03:42.795Z,36.8
2018-11-23T12:04:43.768Z,39.1
2018-11-23T12:05:44.646Z,36.6
2018-11-23T12:06:45.368Z,37.4
2018-11-23T12:07:46.084Z,36.9
2018-11-23T12:08:46.805Z,37.5
2018-11-23T12:09:47.522Z,37.9
2018-11-23T12:10:48.285Z,38.5
2018-11-23T12:11:49.011Z,37.1
2018-11-23T12:12:49.733Z,39.8
2018-11-23T12:13:50.461Z,38.6
2018-11-23T12:14:51.176Z,41.3
2018-11-23T12:15:51.888Z,37.9
2018-11-23T12:16:52.622Z,40.2
2018-11-23T12:17:54.413Z,39.4
2018-11-23T12:18:55.448Z,37.3
2018-11-23T12:19:56.160Z,37.0
2018-11-23T12:20:57.146Z,36.5
2018-11-23T12:21:57.868Z,36.6
2018-11-23T12:22:58.587Z,38.4
2018-11-23T12:23:59.317Z,37.7
2018-11-23T12:25:00.455Z,39.0
2018-11-23T12:26:01.155Z,37.6
2018-11-23T12:27:01.882Z,36.4
2018-11-23T12:28:02.601Z,36.9
2018-11-23T12:29:03.326Z,39.7
2018-11-23T12:30:04.051Z,40.3
2018-11-23T12:31:04.769Z,38.3
2018-11-23T12:32:05.498Z,43.4
2018-11-23T12:33:06.211Z,37.5
2018-11-23T12:34:06.925Z,37.4
2018-11-23T12:35:07.696Z,38.2
2018-11-23T12:36:08.405Z,40.9
2018-11-23T12:37:09.130Z,38.1
2018-11-23T12:38:09.838Z,36.5
2018-11-23T12:39:10.678Z,41.2
2018-11-23T12:40:11.437Z,34.4
2018-11-23T12:41:12.344Z,41.2
2018-11-23T12:42:13.476Z,35.9
2018-11-23T12:43:14.198Z,37.1
2018-11-23T12:44:14.922Z,36.7
2018-11-23T12:45:15.642Z,33.2
2018-11-23T12:46:16.360Z,35.4
2018-11-23T12:47:17.356Z,35.0
2018-11-23T12:48:18.088Z,35.1
2018-11-23T12:49:18.801Z,33.9
2018-11-23T12:50:19.771Z,34.3
2018-11-23T12:51:20.501Z,36.2
2018-11-23T12:52:21.233Z,35.5
2018-11-23T12:53:21.946Z,33.9
2018-11-23T12:54:22.653Z,38.1
2018-11-23T12:55:23.376Z,36.4
2018-11-23T12:56:24.097Z,37.8
2018-11-23T12:57:24.820Z,35.1
2018-11-23T12:58:25.533Z,35.3
2018-11-23T12:59:26.245Z,37.3
2018-11-23T13:00:26.966Z,42.1
2018-11-23T13:01:27.693Z,36.9
2018-11-23T13:02:28.415Z,36.1
2018-11-23T13:03:29.129Z,38.9
2018-11-23T13:04:29.849Z,35.3
2018-11-23T13:05:30.929Z,37.9
2018-11-23T13:06:31.643Z,39.9
2018-11-23T13:07:32.349Z,38.4
2018-11-23T13:08:33.322Z,40.9
2018-11-23T13:09:34.038Z,38.4
2018-11-23T13:10:34.857Z,39.5
2018-11-23T13:11:35.581Z,40.3
2018-11-23T13:12:36.303Z,39.6
2018-11-23T13:13:37.039Z,40.8
2018-11-23T13:14:37.755Z,39.6
2018-11-23T13:15:38.492Z,38.3
2018-11-23T13:16:39.217Z,40.2
2018-11-23T13:17:39.947Z,39.9
2018-11-23T13:18:40.670Z,38.6
2018-11-23T13:19:41.386Z,40.7
2018-11-23T13:20:42.124Z,41.3